sensor_id;sensor_type;location;lat;lon;timestamp;P1;durP1;ratioP1;P2;durP2;ratioP2
26977;SDS011;56314;48.088;11.642;2023-04-03T00:01:04;22.95;;;13.30;;
26977;SDS011;56314;48.088;11.642;2023-04-03T00:03:33;18.60;;;13.18;;
26977;SDS011;56314;48.088;11.642;2023-04-03T00:05:58;19.13;;;12.63;;
26977;SDS011;56314;48.088;11.642;2023-04-03T00:08:24;18.38;;;13.57;;
26977;SDS011;56314;48.088;11.642;2023-04-03T00:10:50;16.80;;;12.35;;
26977;SDS011;56314;48.088;11.642;2023-04-03T00:13:15;19.30;;;12.70;;
26977;SDS011;56314;48.088;11.642;2023-04-03T00:15:41;19.48;;;11.82;;
26977;SDS011;56314;48.088;11.642;2023-04-03T00:18:06;16.95;;;12.98;;
26977;SDS011;56314;48.088;11.642;2023-04-03T00:20:32;18.63;;;12.10;;
26977;SDS011;56314;48.088;11.642;2023-04-03T00:22:58;18.25;;;12.10;;
26977;SDS011;56314;48.088;11.642;2023-04-03T00:25:24;17.55;;;12.48;;
26977;SDS011;56314;48.088;11.642;2023-04-03T00:27:50;18.33;;;12.20;;
26977;SDS011;56314;48.088;11.642;2023-04-03T00:30:16;18.40;;;11.85;;
26977;SDS011;56314;48.088;11.642;2023-04-03T00:32:44;19.85;;;13.18;;
26977;SDS011;56314;48.088;11.642;2023-04-03T00:35:09;20.33;;;12.82;;
26977;SDS011;56314;48.088;11.642;2023-04-03T00:37:35;20.30;;;12.35;;
26977;SDS011;56314;48.088;11.642;2023-04-03T00:40:01;16.88;;;11.38;;
26977;SDS011;56314;48.088;11.642;2023-04-03T00:42:27;18.55;;;11.77;;
26977;SDS011;56314;48.088;11.642;2023-04-03T00:47:21;17.55;;;11.05;;
26977;SDS011;56314;48.088;11.642;2023-04-03T00:49:47;18.63;;;10.93;;
26977;SDS011;56314;48.088;11.642;2023-04-03T00:52:13;18.20;;;12.00;;
26977;SDS011;56314;48.088;11.642;2023-04-03T00:54:42;14.70;;;11.02;;
26977;SDS011;56314;48.088;11.642;2023-04-03T00:57:11;17.00;;;10.95;;
26977;SDS011;56314;48.088;11.642;2023-04-03T00:59:38;14.50;;;10.88;;
26977;SDS011;56314;48.088;11.642;2023-04-03T01:02:09;19.73;;;11.27;;
26977;SDS011;56314;48.088;11.642;2023-04-03T01:04:36;16.17;;;11.40;;
26977;SDS011;56314;48.088;11.642;2023-04-03T01:09:51;15.88;;;11.52;;
26977;SDS011;56314;48.088;11.642;2023-04-03T01:12:22;20.17;;;12.63;;
26977;SDS011;56314;48.088;11.642;2023-04-03T01:14:50;18.25;;;11.98;;
26977;SDS011;56314;48.088;11.642;2023-04-03T01:25:34;16.02;;;11.73;;
26977;SDS011;56314;48.088;11.642;2023-04-03T01:28:01;17.10;;;11.30;;
26977;SDS011;56314;48.088;11.642;2023-04-03T01:30:31;14.30;;;10.80;;
26977;SDS011;56314;48.088;11.642;2023-04-03T01:32:59;16.27;;;11.00;;
26977;SDS011;56314;48.088;11.642;2023-04-03T01:35:25;16.52;;;11.00;;
26977;SDS011;56314;48.088;11.642;2023-04-03T01:37:50;17.02;;;10.35;;
26977;SDS011;56314;48.088;11.642;2023-04-03T01:40:16;18.55;;;11.40;;
26977;SDS011;56314;48.088;11.642;2023-04-03T01:42:41;17.10;;;11.60;;
26977;SDS011;56314;48.088;11.642;2023-04-03T01:45:06;17.42;;;12.30;;
26977;SDS011;56314;48.088;11.642;2023-04-03T01:47:32;21.25;;;11.73;;
26977;SDS011;56314;48.088;11.642;2023-04-03T01:49:57;15.25;;;11.63;;
26977;SDS011;56314;48.088;11.642;2023-04-03T01:52:23;19.48;;;11.63;;
26977;SDS011;56314;48.088;11.642;2023-04-03T01:54:48;20.70;;;11.57;;
26977;SDS011;56314;48.088;11.642;2023-04-03T01:57:14;15.90;;;11.15;;
26977;SDS011;56314;48.088;11.642;2023-04-03T01:59:40;16.95;;;11.63;;
26977;SDS011;56314;48.088;11.642;2023-04-03T02:02:05;16.17;;;11.90;;
26977;SDS011;56314;48.088;11.642;2023-04-03T02:04:31;17.33;;;11.13;;
26977;SDS011;56314;48.088;11.642;2023-04-03T02:06:56;19.63;;;12.23;;
26977;SDS011;56314;48.088;11.642;2023-04-03T02:09:21;14.45;;;10.95;;
26977;SDS011;56314;48.088;11.642;2023-04-03T02:11:47;17.10;;;11.35;;
26977;SDS011;56314;48.088;11.642;2023-04-03T02:14:12;16.77;;;11.07;;
26977;SDS011;56314;48.088;11.642;2023-04-03T02:16:37;16.60;;;11.43;;
26977;SDS011;56314;48.088;11.642;2023-04-03T02:19:03;16.15;;;10.90;;
26977;SDS011;56314;48.088;11.642;2023-04-03T02:21:28;12.35;;;9.63;;
26977;SDS011;56314;48.088;11.642;2023-04-03T02:23:54;18.52;;;11.65;;
26977;SDS011;56314;48.088;11.642;2023-04-03T02:26:19;16.85;;;10.57;;
26977;SDS011;56314;48.088;11.642;2023-04-03T02:28:44;14.25;;;10.20;;
26977;SDS011;56314;48.088;11.642;2023-04-03T02:31:12;13.75;;;9.63;;
26977;SDS011;56314;48.088;11.642;2023-04-03T02:33:38;16.27;;;10.23;;
26977;SDS011;56314;48.088;11.642;2023-04-03T02:36:04;14.38;;;10.05;;
26977;SDS011;56314;48.088;11.642;2023-04-03T02:38:30;14.93;;;10.48;;
26977;SDS011;56314;48.088;11.642;2023-04-03T02:40:59;16.05;;;11.27;;
26977;SDS011;56314;48.088;11.642;2023-04-03T02:43:26;15.27;;;10.43;;
26977;SDS011;56314;48.088;11.642;2023-04-03T02:45:51;19.67;;;10.88;;
26977;SDS011;56314;48.088;11.642;2023-04-03T02:48:17;17.98;;;10.43;;
26977;SDS011;56314;48.088;11.642;2023-04-03T02:50:42;13.55;;;9.60;;
26977;SDS011;56314;48.088;11.642;2023-04-03T02:53:07;16.10;;;10.52;;
26977;SDS011;56314;48.088;11.642;2023-04-03T02:55:33;15.63;;;10.07;;
26977;SDS011;56314;48.088;11.642;2023-04-03T02:57:58;13.90;;;9.60;;
26977;SDS011;56314;48.088;11.642;2023-04-03T03:00:23;12.93;;;10.07;;
26977;SDS011;56314;48.088;11.642;2023-04-03T03:02:49;14.60;;;9.38;;
26977;SDS011;56314;48.088;11.642;2023-04-03T03:05:14;11.98;;;9.45;;
26977;SDS011;56314;48.088;11.642;2023-04-03T03:07:40;18.20;;;8.93;;
26977;SDS011;56314;48.088;11.642;2023-04-03T03:10:05;14.38;;;9.38;;
26977;SDS011;56314;48.088;11.642;2023-04-03T03:12:31;12.10;;;8.73;;
26977;SDS011;56314;48.088;11.642;2023-04-03T03:14:56;19.50;;;11.48;;
26977;SDS011;56314;48.088;11.642;2023-04-03T03:17:22;11.75;;;8.38;;
26977;SDS011;56314;48.088;11.642;2023-04-03T03:19:47;9.95;;;7.88;;
26977;SDS011;56314;48.088;11.642;2023-04-03T03:22:12;12.15;;;9.05;;
26977;SDS011;56314;48.088;11.642;2023-04-03T03:24:40;11.20;;;8.32;;
26977;SDS011;56314;48.088;11.642;2023-04-03T03:27:06;11.90;;;7.47;;
26977;SDS011;56314;48.088;11.642;2023-04-03T03:29:31;10.25;;;7.38;;
26977;SDS011;56314;48.088;11.642;2023-04-03T03:31:56;10.95;;;8.30;;
26977;SDS011;56314;48.088;11.642;2023-04-03T03:34:22;11.00;;;7.75;;
26977;SDS011;56314;48.088;11.642;2023-04-03T03:36:47;11.40;;;6.95;;
26977;SDS011;56314;48.088;11.642;2023-04-03T03:39:12;11.63;;;7.40;;
26977;SDS011;56314;48.088;11.642;2023-04-03T03:41:38;10.13;;;7.40;;
26977;SDS011;56314;48.088;11.642;2023-04-03T03:44:03;8.25;;;6.75;;
26977;SDS011;56314;48.088;11.642;2023-04-03T03:46:29;11.30;;;6.65;;
26977;SDS011;56314;48.088;11.642;2023-04-03T03:48:54;9.40;;;6.80;;
26977;SDS011;56314;48.088;11.642;2023-04-03T03:51:20;9.75;;;6.88;;
26977;SDS011;56314;48.088;11.642;2023-04-03T03:53:45;14.65;;;7.13;;
26977;SDS011;56314;48.088;11.642;2023-04-03T03:56:10;10.50;;;7.10;;
26977;SDS011;56314;48.088;11.642;2023-04-03T03:58:36;8.35;;;6.25;;
26977;SDS011;56314;48.088;11.642;2023-04-03T04:01:03;10.70;;;7.40;;
26977;SDS011;56314;48.088;11.642;2023-04-03T04:03:30;12.85;;;7.45;;
26977;SDS011;56314;48.088;11.642;2023-04-03T04:05:56;9.75;;;6.63;;
26977;SDS011;56314;48.088;11.642;2023-04-03T04:08:21;9.27;;;6.25;;
26977;SDS011;56314;48.088;11.642;2023-04-03T04:10:47;8.18;;;6.07;;
26977;SDS011;56314;48.088;11.642;2023-04-03T04:13:12;10.45;;;7.15;;
26977;SDS011;56314;48.088;11.642;2023-04-03T04:15:37;7.60;;;6.13;;
26977;SDS011;56314;48.088;11.642;2023-04-03T04:18:03;10.27;;;6.20;;
26977;SDS011;56314;48.088;11.642;2023-04-03T04:20:34;8.00;;;5.72;;
26977;SDS011;56314;48.088;11.642;2023-04-03T04:22:59;8.43;;;5.88;;
26977;SDS011;56314;48.088;11.642;2023-04-03T04:25:25;11.98;;;6.80;;
26977;SDS011;56314;48.088;11.642;2023-04-03T04:27:50;6.72;;;5.72;;
26977;SDS011;56314;48.088;11.642;2023-04-03T04:30:16;7.97;;;6.10;;
26977;SDS011;56314;48.088;11.642;2023-04-03T04:32:42;6.90;;;5.30;;
26977;SDS011;56314;48.088;11.642;2023-04-03T04:35:08;9.05;;;6.28;;
26977;SDS011;56314;48.088;11.642;2023-04-03T04:37:33;6.50;;;5.55;;
26977;SDS011;56314;48.088;11.642;2023-04-03T04:39:59;8.80;;;6.05;;
26977;SDS011;56314;48.088;11.642;2023-04-03T04:42:24;9.35;;;6.10;;
26977;SDS011;56314;48.088;11.642;2023-04-03T04:44:50;11.43;;;6.93;;
26977;SDS011;56314;48.088;11.642;2023-04-03T04:47:15;8.00;;;6.07;;
26977;SDS011;56314;48.088;11.642;2023-04-03T04:49:40;6.90;;;5.60;;
26977;SDS011;56314;48.088;11.642;2023-04-03T04:52:06;6.38;;;5.47;;
26977;SDS011;56314;48.088;11.642;2023-04-03T04:54:31;9.60;;;6.13;;
26977;SDS011;56314;48.088;11.642;2023-04-03T04:57:00;9.95;;;5.57;;
26977;SDS011;56314;48.088;11.642;2023-04-03T04:59:25;8.80;;;5.97;;
26977;SDS011;56314;48.088;11.642;2023-04-03T05:01:50;9.95;;;6.32;;
26977;SDS011;56314;48.088;11.642;2023-04-03T05:04:16;8.73;;;6.18;;
26977;SDS011;56314;48.088;11.642;2023-04-03T05:06:42;7.63;;;5.95;;
26977;SDS011;56314;48.088;11.642;2023-04-03T05:09:07;9.77;;;5.68;;
26977;SDS011;56314;48.088;11.642;2023-04-03T05:11:33;8.93;;;6.03;;
26977;SDS011;56314;48.088;11.642;2023-04-03T05:13:59;9.10;;;5.70;;
26977;SDS011;56314;48.088;11.642;2023-04-03T05:16:24;6.20;;;5.25;;
26977;SDS011;56314;48.088;11.642;2023-04-03T05:18:50;8.68;;;5.35;;
26977;SDS011;56314;48.088;11.642;2023-04-03T05:21:15;7.20;;;5.57;;
26977;SDS011;56314;48.088;11.642;2023-04-03T05:23:43;7.10;;;5.55;;
26977;SDS011;56314;48.088;11.642;2023-04-03T05:26:08;7.95;;;5.28;;
26977;SDS011;56314;48.088;11.642;2023-04-03T05:28:34;7.80;;;5.15;;
26977;SDS011;56314;48.088;11.642;2023-04-03T05:30:59;8.93;;;5.82;;
26977;SDS011;56314;48.088;11.642;2023-04-03T05:33:24;9.73;;;6.03;;
26977;SDS011;56314;48.088;11.642;2023-04-03T05:35:51;8.20;;;5.85;;
26977;SDS011;56314;48.088;11.642;2023-04-03T05:38:17;8.40;;;5.78;;
26977;SDS011;56314;48.088;11.642;2023-04-03T05:40:43;11.27;;;6.20;;
26977;SDS011;56314;48.088;11.642;2023-04-03T05:43:08;10.10;;;5.78;;
26977;SDS011;56314;48.088;11.642;2023-04-03T05:45:33;7.53;;;5.78;;
26977;SDS011;56314;48.088;11.642;2023-04-03T05:47:59;9.50;;;5.80;;
26977;SDS011;56314;48.088;11.642;2023-04-03T05:50:24;8.18;;;5.30;;
26977;SDS011;56314;48.088;11.642;2023-04-03T05:52:50;8.60;;;5.68;;
26977;SDS011;56314;48.088;11.642;2023-04-03T05:55:17;5.97;;;5.38;;
26977;SDS011;56314;48.088;11.642;2023-04-03T05:57:42;6.78;;;5.78;;
26977;SDS011;56314;48.088;11.642;2023-04-03T06:00:08;7.70;;;6.22;;
26977;SDS011;56314;48.088;11.642;2023-04-03T06:02:37;8.88;;;5.80;;
26977;SDS011;56314;48.088;11.642;2023-04-03T06:05:03;8.27;;;5.60;;
26977;SDS011;56314;48.088;11.642;2023-04-03T06:07:29;6.63;;;5.10;;
26977;SDS011;56314;48.088;11.642;2023-04-03T06:09:55;7.38;;;5.47;;
26977;SDS011;56314;48.088;11.642;2023-04-03T06:12:25;7.97;;;5.70;;
26977;SDS011;56314;48.088;11.642;2023-04-03T06:14:50;9.13;;;5.47;;
26977;SDS011;56314;48.088;11.642;2023-04-03T06:17:16;7.97;;;5.63;;
26977;SDS011;56314;48.088;11.642;2023-04-03T06:19:43;6.95;;;5.18;;
26977;SDS011;56314;48.088;11.642;2023-04-03T06:22:08;6.75;;;4.95;;
26977;SDS011;56314;48.088;11.642;2023-04-03T06:24:34;7.55;;;5.90;;
26977;SDS011;56314;48.088;11.642;2023-04-03T06:27:03;8.57;;;4.80;;
26977;SDS011;56314;48.088;11.642;2023-04-03T06:29:29;7.95;;;5.78;;
26977;SDS011;56314;48.088;11.642;2023-04-03T06:31:55;5.80;;;5.20;;
26977;SDS011;56314;48.088;11.642;2023-04-03T06:34:20;5.95;;;4.93;;
26977;SDS011;56314;48.088;11.642;2023-04-03T06:36:46;7.38;;;5.43;;
26977;SDS011;56314;48.088;11.642;2023-04-03T06:39:15;6.32;;;4.70;;
26977;SDS011;56314;48.088;11.642;2023-04-03T06:41:43;10.85;;;5.38;;
26977;SDS011;56314;48.088;11.642;2023-04-03T06:44:09;10.73;;;5.15;;
26977;SDS011;56314;48.088;11.642;2023-04-03T06:46:36;9.77;;;5.05;;
26977;SDS011;56314;48.088;11.642;2023-04-03T06:49:02;7.65;;;5.55;;
26977;SDS011;56314;48.088;11.642;2023-04-03T06:51:28;7.95;;;5.43;;
26977;SDS011;56314;48.088;11.642;2023-04-03T06:53:58;10.55;;;6.05;;
26977;SDS011;56314;48.088;11.642;2023-04-03T06:56:24;16.08;;;11.40;;
26977;SDS011;56314;48.088;11.642;2023-04-03T06:58:51;7.43;;;4.38;;
26977;SDS011;56314;48.088;11.642;2023-04-03T07:01:19;9.60;;;4.95;;
26977;SDS011;56314;48.088;11.642;2023-04-03T07:03:46;8.45;;;5.38;;
26977;SDS011;56314;48.088;11.642;2023-04-03T07:06:13;6.63;;;4.68;;
26977;SDS011;56314;48.088;11.642;2023-04-03T07:08:40;7.65;;;4.78;;
26977;SDS011;56314;48.088;11.642;2023-04-03T07:11:07;6.53;;;4.95;;
26977;SDS011;56314;48.088;11.642;2023-04-03T07:13:33;11.02;;;5.95;;
26977;SDS011;56314;48.088;11.642;2023-04-03T07:16:00;7.45;;;5.15;;
26977;SDS011;56314;48.088;11.642;2023-04-03T07:18:26;6.95;;;4.72;;
26977;SDS011;56314;48.088;11.642;2023-04-03T07:20:51;8.93;;;4.82;;
26977;SDS011;56314;48.088;11.642;2023-04-03T07:23:17;9.02;;;5.35;;
26977;SDS011;56314;48.088;11.642;2023-04-03T07:25:43;6.95;;;5.50;;
26977;SDS011;56314;48.088;11.642;2023-04-03T07:28:09;7.32;;;5.18;;
26977;SDS011;56314;48.088;11.642;2023-04-03T07:30:41;8.07;;;5.10;;
26977;SDS011;56314;48.088;11.642;2023-04-03T07:33:07;6.53;;;4.70;;
26977;SDS011;56314;48.088;11.642;2023-04-03T07:35:32;7.90;;;4.90;;
26977;SDS011;56314;48.088;11.642;2023-04-03T07:37:58;8.90;;;4.90;;
26977;SDS011;56314;48.088;11.642;2023-04-03T07:40:23;7.72;;;5.47;;
26977;SDS011;56314;48.088;11.642;2023-04-03T07:42:48;8.75;;;4.68;;
26977;SDS011;56314;48.088;11.642;2023-04-03T07:45:15;8.63;;;5.65;;
26977;SDS011;56314;48.088;11.642;2023-04-03T07:47:42;10.43;;;5.22;;
26977;SDS011;56314;48.088;11.642;2023-04-03T07:50:07;7.07;;;5.75;;
26977;SDS011;56314;48.088;11.642;2023-04-03T07:52:33;8.32;;;5.10;;
26977;SDS011;56314;48.088;11.642;2023-04-03T07:54:58;7.13;;;5.55;;
26977;SDS011;56314;48.088;11.642;2023-04-03T07:57:23;7.68;;;5.80;;
26977;SDS011;56314;48.088;11.642;2023-04-03T07:59:49;8.90;;;5.40;;
26977;SDS011;56314;48.088;11.642;2023-04-03T08:02:14;7.60;;;5.13;;
26977;SDS011;56314;48.088;11.642;2023-04-03T08:04:39;7.78;;;5.20;;
26977;SDS011;56314;48.088;11.642;2023-04-03T08:07:05;8.30;;;5.53;;
26977;SDS011;56314;48.088;11.642;2023-04-03T08:09:30;9.38;;;5.40;;
26977;SDS011;56314;48.088;11.642;2023-04-03T08:11:56;10.60;;;5.55;;
26977;SDS011;56314;48.088;11.642;2023-04-03T08:14:22;9.93;;;4.78;;
26977;SDS011;56314;48.088;11.642;2023-04-03T08:16:47;9.30;;;5.75;;
26977;SDS011;56314;48.088;11.642;2023-04-03T08:19:14;8.18;;;5.35;;
26977;SDS011;56314;48.088;11.642;2023-04-03T08:21:41;9.40;;;5.70;;
26977;SDS011;56314;48.088;11.642;2023-04-03T08:24:07;10.27;;;5.68;;
26977;SDS011;56314;48.088;11.642;2023-04-03T08:26:33;8.63;;;5.07;;
26977;SDS011;56314;48.088;11.642;2023-04-03T08:28:59;7.80;;;5.50;;
26977;SDS011;56314;48.088;11.642;2023-04-03T08:31:24;8.77;;;5.40;;
26977;SDS011;56314;48.088;11.642;2023-04-03T08:33:50;9.73;;;6.13;;
26977;SDS011;56314;48.088;11.642;2023-04-03T08:36:25;7.55;;;5.65;;
26977;SDS011;56314;48.088;11.642;2023-04-03T08:38:52;11.60;;;6.70;;
26977;SDS011;56314;48.088;11.642;2023-04-03T08:49:59;6.85;;;5.22;;
26977;SDS011;56314;48.088;11.642;2023-04-03T08:52:45;8.63;;;6.13;;
26977;SDS011;56314;48.088;11.642;2023-04-03T08:57:47;13.07;;;6.28;;
26977;SDS011;56314;48.088;11.642;2023-04-03T09:00:16;7.32;;;5.90;;
26977;SDS011;56314;48.088;11.642;2023-04-03T09:02:45;10.90;;;6.70;;
26977;SDS011;56314;48.088;11.642;2023-04-03T09:05:14;5.72;;;5.03;;
26977;SDS011;56314;48.088;11.642;2023-04-03T09:07:45;9.13;;;5.82;;
26977;SDS011;56314;48.088;11.642;2023-04-03T09:10:15;8.43;;;5.07;;
26977;SDS011;56314;48.088;11.642;2023-04-03T09:12:46;9.18;;;5.50;;
26977;SDS011;56314;48.088;11.642;2023-04-03T09:15:21;6.88;;;5.60;;
26977;SDS011;56314;48.088;11.642;2023-04-03T09:23:26;6.28;;;4.45;;
26977;SDS011;56314;48.088;11.642;2023-04-03T09:26:00;7.53;;;4.80;;
26977;SDS011;56314;48.088;11.642;2023-04-03T09:28:34;8.05;;;4.97;;
26977;SDS011;56314;48.088;11.642;2023-04-03T09:31:05;8.52;;;5.57;;
26977;SDS011;56314;48.088;11.642;2023-04-03T09:33:43;8.18;;;5.18;;
26977;SDS011;56314;48.088;11.642;2023-04-03T09:36:10;7.25;;;5.13;;
26977;SDS011;56314;48.088;11.642;2023-04-03T09:38:36;7.93;;;5.05;;
26977;SDS011;56314;48.088;11.642;2023-04-03T09:43:30;9.27;;;5.25;;
26977;SDS011;56314;48.088;11.642;2023-04-03T09:46:15;7.90;;;4.95;;
26977;SDS011;56314;48.088;11.642;2023-04-03T09:49:03;6.93;;;4.80;;
26977;SDS011;56314;48.088;11.642;2023-04-03T09:51:30;7.55;;;5.20;;
26977;SDS011;56314;48.088;11.642;2023-04-03T09:53:56;6.82;;;4.90;;
26977;SDS011;56314;48.088;11.642;2023-04-03T09:56:28;6.80;;;4.85;;
26977;SDS011;56314;48.088;11.642;2023-04-03T10:04:15;7.65;;;4.85;;
26977;SDS011;56314;48.088;11.642;2023-04-03T10:06:46;5.57;;;4.72;;
26977;SDS011;56314;48.088;11.642;2023-04-03T10:12:03;8.98;;;5.00;;
26977;SDS011;56314;48.088;11.642;2023-04-03T10:14:35;6.53;;;4.45;;
26977;SDS011;56314;48.088;11.642;2023-04-03T10:22:00;7.30;;;4.20;;
26977;SDS011;56314;48.088;11.642;2023-04-03T10:46:42;6.32;;;4.80;;
26977;SDS011;56314;48.088;11.642;2023-04-03T10:52:01;6.40;;;4.82;;
26977;SDS011;56314;48.088;11.642;2023-04-03T10:55:28;5.35;;;4.75;;
26977;SDS011;56314;48.088;11.642;2023-04-03T10:57:51;7.10;;;4.30;;
26977;SDS011;56314;48.088;11.642;2023-04-03T11:00:22;8.70;;;4.90;;
26977;SDS011;56314;48.088;11.642;2023-04-03T11:03:00;6.32;;;4.72;;
26977;SDS011;56314;48.088;11.642;2023-04-03T11:10:57;7.18;;;4.38;;
26977;SDS011;56314;48.088;11.642;2023-04-03T11:16:35;8.27;;;4.78;;
26977;SDS011;56314;48.088;11.642;2023-04-03T11:19:15;6.20;;;4.88;;
26977;SDS011;56314;48.088;11.642;2023-04-03T11:24:29;7.00;;;4.40;;
26977;SDS011;56314;48.088;11.642;2023-04-03T11:26:58;8.07;;;4.45;;
26977;SDS011;56314;48.088;11.642;2023-04-03T11:29:34;5.70;;;4.07;;
26977;SDS011;56314;48.088;11.642;2023-04-03T11:34:37;7.00;;;3.80;;
26977;SDS011;56314;48.088;11.642;2023-04-03T11:37:25;6.30;;;3.55;;
26977;SDS011;56314;48.088;11.642;2023-04-03T11:40:19;4.78;;;3.40;;
26977;SDS011;56314;48.088;11.642;2023-04-03T11:42:52;6.90;;;3.40;;
26977;SDS011;56314;48.088;11.642;2023-04-03T11:47:50;13.88;;;3.75;;
26977;SDS011;56314;48.088;11.642;2023-04-03T12:05:59;5.50;;;2.75;;
26977;SDS011;56314;48.088;11.642;2023-04-03T12:16:21;4.15;;;3.05;;
26977;SDS011;56314;48.088;11.642;2023-04-03T12:21:36;5.05;;;2.63;;
26977;SDS011;56314;48.088;11.642;2023-04-03T12:37:30;4.78;;;2.47;;
26977;SDS011;56314;48.088;11.642;2023-04-03T12:40:17;5.47;;;2.90;;
26977;SDS011;56314;48.088;11.642;2023-04-03T12:45:49;6.45;;;2.83;;
26977;SDS011;56314;48.088;11.642;2023-04-03T12:51:18;3.00;;;2.00;;
26977;SDS011;56314;48.088;11.642;2023-04-03T12:53:57;3.53;;;2.42;;
26977;SDS011;56314;48.088;11.642;2023-04-03T12:56:31;5.75;;;2.90;;
26977;SDS011;56314;48.088;11.642;2023-04-03T13:01:41;4.60;;;2.45;;
26977;SDS011;56314;48.088;11.642;2023-04-03T13:04:06;7.05;;;2.92;;
26977;SDS011;56314;48.088;11.642;2023-04-03T13:06:43;2.83;;;2.35;;
26977;SDS011;56314;48.088;11.642;2023-04-03T13:14:17;5.20;;;2.55;;
26977;SDS011;56314;48.088;11.642;2023-04-03T13:17:19;4.72;;;2.53;;
26977;SDS011;56314;48.088;11.642;2023-04-03T13:19:39;4.15;;;2.65;;
26977;SDS011;56314;48.088;11.642;2023-04-03T13:22:08;7.20;;;2.45;;
26977;SDS011;56314;48.088;11.642;2023-04-03T13:24:47;4.32;;;2.38;;
26977;SDS011;56314;48.088;11.642;2023-04-03T13:27:15;5.47;;;2.20;;
26977;SDS011;56314;48.088;11.642;2023-04-03T13:29:41;5.05;;;2.30;;
26977;SDS011;56314;48.088;11.642;2023-04-03T13:32:13;5.97;;;2.63;;
26977;SDS011;56314;48.088;11.642;2023-04-03T13:34:44;4.38;;;2.70;;
26977;SDS011;56314;48.088;11.642;2023-04-03T13:40:18;3.90;;;2.50;;
26977;SDS011;56314;48.088;11.642;2023-04-03T13:42:43;3.03;;;2.13;;
26977;SDS011;56314;48.088;11.642;2023-04-03T13:45:23;2.97;;;2.20;;
26977;SDS011;56314;48.088;11.642;2023-04-03T13:47:53;3.85;;;2.10;;
26977;SDS011;56314;48.088;11.642;2023-04-03T13:50:59;15.20;;;6.78;;
26977;SDS011;56314;48.088;11.642;2023-04-03T13:53:27;4.05;;;2.00;;
26977;SDS011;56314;48.088;11.642;2023-04-03T13:58:51;3.97;;;2.10;;
26977;SDS011;56314;48.088;11.642;2023-04-03T14:01:21;4.72;;;1.90;;
26977;SDS011;56314;48.088;11.642;2023-04-03T14:03:52;2.92;;;1.92;;
26977;SDS011;56314;48.088;11.642;2023-04-03T14:06:18;6.47;;;2.17;;
26977;SDS011;56314;48.088;11.642;2023-04-03T14:08:44;3.45;;;2.25;;
26977;SDS011;56314;48.088;11.642;2023-04-03T14:11:18;4.18;;;1.90;;
26977;SDS011;56314;48.088;11.642;2023-04-03T14:13:46;4.78;;;1.75;;
26977;SDS011;56314;48.088;11.642;2023-04-03T14:16:14;4.18;;;2.35;;
26977;SDS011;56314;48.088;11.642;2023-04-03T14:18:41;4.97;;;1.95;;
26977;SDS011;56314;48.088;11.642;2023-04-03T14:21:10;5.18;;;2.28;;
26977;SDS011;56314;48.088;11.642;2023-04-03T14:23:39;4.18;;;2.22;;
26977;SDS011;56314;48.088;11.642;2023-04-03T14:26:08;3.22;;;2.00;;
26977;SDS011;56314;48.088;11.642;2023-04-03T14:28:37;4.53;;;1.90;;
26977;SDS011;56314;48.088;11.642;2023-04-03T14:31:02;4.45;;;2.10;;
26977;SDS011;56314;48.088;11.642;2023-04-03T14:33:27;3.30;;;2.00;;
26977;SDS011;56314;48.088;11.642;2023-04-03T14:35:56;3.83;;;1.63;;
26977;SDS011;56314;48.088;11.642;2023-04-03T14:38:28;4.20;;;1.88;;
26977;SDS011;56314;48.088;11.642;2023-04-03T14:40:56;3.72;;;1.95;;
26977;SDS011;56314;48.088;11.642;2023-04-03T14:43:22;3.80;;;2.15;;
26977;SDS011;56314;48.088;11.642;2023-04-03T14:45:48;4.20;;;2.10;;
26977;SDS011;56314;48.088;11.642;2023-04-03T14:48:17;6.03;;;1.85;;
26977;SDS011;56314;48.088;11.642;2023-04-03T14:50:45;5.03;;;1.73;;
26977;SDS011;56314;48.088;11.642;2023-04-03T14:53:11;3.42;;;2.00;;
26977;SDS011;56314;48.088;11.642;2023-04-03T14:55:39;4.38;;;1.88;;
26977;SDS011;56314;48.088;11.642;2023-04-03T14:58:08;4.07;;;2.45;;
26977;SDS011;56314;48.088;11.642;2023-04-03T15:00:38;2.80;;;1.85;;
26977;SDS011;56314;48.088;11.642;2023-04-03T15:03:03;3.55;;;1.90;;
26977;SDS011;56314;48.088;11.642;2023-04-03T15:05:28;7.18;;;1.90;;
26977;SDS011;56314;48.088;11.642;2023-04-03T15:07:54;4.13;;;1.77;;
26977;SDS011;56314;48.088;11.642;2023-04-03T15:10:26;2.85;;;1.80;;
26977;SDS011;56314;48.088;11.642;2023-04-03T15:12:53;5.03;;;2.00;;
26977;SDS011;56314;48.088;11.642;2023-04-03T15:15:20;2.97;;;1.95;;
26977;SDS011;56314;48.088;11.642;2023-04-03T15:17:47;3.22;;;1.75;;
26977;SDS011;56314;48.088;11.642;2023-04-03T15:20:19;3.55;;;1.63;;
26977;SDS011;56314;48.088;11.642;2023-04-03T15:22:47;4.10;;;1.73;;
26977;SDS011;56314;48.088;11.642;2023-04-03T15:25:13;4.82;;;2.10;;
26977;SDS011;56314;48.088;11.642;2023-04-03T15:27:38;2.67;;;1.98;;
26977;SDS011;56314;48.088;11.642;2023-04-03T15:30:06;1.88;;;1.60;;
26977;SDS011;56314;48.088;11.642;2023-04-03T15:32:33;4.43;;;1.63;;
26977;SDS011;56314;48.088;11.642;2023-04-03T15:35:00;4.60;;;1.92;;
26977;SDS011;56314;48.088;11.642;2023-04-03T15:37:26;3.80;;;2.03;;
26977;SDS011;56314;48.088;11.642;2023-04-03T15:39:52;4.07;;;2.10;;
26977;SDS011;56314;48.088;11.642;2023-04-03T15:42:17;4.72;;;1.70;;
26977;SDS011;56314;48.088;11.642;2023-04-03T15:44:45;3.05;;;1.77;;
26977;SDS011;56314;48.088;11.642;2023-04-03T15:47:10;3.65;;;1.70;;
26977;SDS011;56314;48.088;11.642;2023-04-03T15:49:36;2.33;;;1.40;;
26977;SDS011;56314;48.088;11.642;2023-04-03T15:52:05;3.78;;;1.65;;
26977;SDS011;56314;48.088;11.642;2023-04-03T15:54:31;2.65;;;1.60;;
26977;SDS011;56314;48.088;11.642;2023-04-03T15:56:57;3.47;;;2.33;;
26977;SDS011;56314;48.088;11.642;2023-04-03T15:59:22;4.35;;;1.70;;
26977;SDS011;56314;48.088;11.642;2023-04-03T16:01:48;3.13;;;1.60;;
26977;SDS011;56314;48.088;11.642;2023-04-03T16:04:15;3.22;;;1.77;;
26977;SDS011;56314;48.088;11.642;2023-04-03T16:06:40;4.50;;;1.63;;
26977;SDS011;56314;48.088;11.642;2023-04-03T16:09:06;2.40;;;1.50;;
26977;SDS011;56314;48.088;11.642;2023-04-03T16:11:32;1.40;;;1.30;;
26977;SDS011;56314;48.088;11.642;2023-04-03T16:14:00;3.10;;;1.90;;
26977;SDS011;56314;48.088;11.642;2023-04-03T16:16:25;3.67;;;1.60;;
26977;SDS011;56314;48.088;11.642;2023-04-03T16:18:52;2.85;;;1.88;;
26977;SDS011;56314;48.088;11.642;2023-04-03T16:21:19;4.68;;;2.10;;
26977;SDS011;56314;48.088;11.642;2023-04-03T16:23:44;4.00;;;1.77;;
26977;SDS011;56314;48.088;11.642;2023-04-03T16:26:11;4.63;;;2.03;;
26977;SDS011;56314;48.088;11.642;2023-04-03T16:28:48;3.08;;;1.85;;
26977;SDS011;56314;48.088;11.642;2023-04-03T16:31:13;3.85;;;2.38;;
26977;SDS011;56314;48.088;11.642;2023-04-03T16:33:39;3.35;;;1.80;;
26977;SDS011;56314;48.088;11.642;2023-04-03T16:36:04;2.80;;;1.88;;
26977;SDS011;56314;48.088;11.642;2023-04-03T16:38:30;6.05;;;2.28;;
26977;SDS011;56314;48.088;11.642;2023-04-03T16:40:55;3.35;;;1.55;;
26977;SDS011;56314;48.088;11.642;2023-04-03T16:43:29;3.58;;;1.50;;
26977;SDS011;56314;48.088;11.642;2023-04-03T16:45:58;3.78;;;2.00;;
26977;SDS011;56314;48.088;11.642;2023-04-03T16:48:24;4.10;;;1.73;;
26977;SDS011;56314;48.088;11.642;2023-04-03T16:50:49;2.97;;;2.10;;
26977;SDS011;56314;48.088;11.642;2023-04-03T16:53:21;4.68;;;2.00;;
26977;SDS011;56314;48.088;11.642;2023-04-03T16:55:48;2.67;;;1.80;;
26977;SDS011;56314;48.088;11.642;2023-04-03T16:58:14;3.85;;;1.70;;